sensor_id;sensor_type;location;lat;lon;timestamp;P1;durP1;ratioP1;P2;durP2;ratioP2
5841;SDS011;2947;52.276;9.946;2024-01-07T00:01:13;11.40;;;5.40;;
5841;SDS011;2947;52.276;9.946;2024-01-07T00:03:42;12.23;;;5.63;;
5841;SDS011;2947;52.276;9.946;2024-01-07T00:06:09;14.10;;;7.20;;
5841;SDS011;2947;52.276;9.946;2024-01-07T00:08:35;12.10;;;6.30;;
5841;SDS011;2947;52.276;9.946;2024-01-07T00:11:01;8.90;;;5.60;;
5841;SDS011;2947;52.276;9.946;2024-01-07T00:13:27;11.50;;;6.30;;
5841;SDS011;2947;52.276;9.946;2024-01-07T00:15:53;12.07;;;6.30;;
5841;SDS011;2947;52.276;9.946;2024-01-07T00:18:20;14.33;;;7.27;;
5841;SDS011;2947;52.276;9.946;2024-01-07T00:20:47;9.67;;;4.57;;
5841;SDS011;2947;52.276;9.946;2024-01-07T00:23:12;10.90;;;5.67;;
5841;SDS011;2947;52.276;9.946;2024-01-07T00:25:38;9.60;;;4.50;;
5841;SDS011;2947;52.276;9.946;2024-01-07T00:28:04;9.90;;;5.23;;
5841;SDS011;2947;52.276;9.946;2024-01-07T00:30:30;12.13;;;6.50;;
5841;SDS011;2947;52.276;9.946;2024-01-07T00:32:56;11.53;;;5.00;;
5841;SDS011;2947;52.276;9.946;2024-01-07T00:35:22;10.40;;;5.93;;
5841;SDS011;2947;52.276;9.946;2024-01-07T00:37:47;7.90;;;4.80;;
5841;SDS011;2947;52.276;9.946;2024-01-07T00:40:13;17.80;;;7.73;;
5841;SDS011;2947;52.276;9.946;2024-01-07T00:42:39;11.83;;;6.10;;
5841;SDS011;2947;52.276;9.946;2024-01-07T00:45:04;14.60;;;7.47;;
5841;SDS011;2947;52.276;9.946;2024-01-07T00:47:31;11.53;;;6.47;;
5841;SDS011;2947;52.276;9.946;2024-01-07T00:49:57;16.93;;;7.70;;
5841;SDS011;2947;52.276;9.946;2024-01-07T00:52:22;9.70;;;5.43;;
5841;SDS011;2947;52.276;9.946;2024-01-07T00:54:48;15.10;;;6.83;;
5841;SDS011;2947;52.276;9.946;2024-01-07T00:57:14;18.53;;;7.43;;
5841;SDS011;2947;52.276;9.946;2024-01-07T00:59:39;33.57;;;6.47;;
5841;SDS011;2947;52.276;9.946;2024-01-07T01:02:05;15.97;;;5.60;;
5841;SDS011;2947;52.276;9.946;2024-01-07T01:04:31;13.20;;;7.40;;
5841;SDS011;2947;52.276;9.946;2024-01-07T01:06:57;11.70;;;5.90;;
5841;SDS011;2947;52.276;9.946;2024-01-07T01:09:22;14.63;;;7.07;;
5841;SDS011;2947;52.276;9.946;2024-01-07T01:11:48;19.70;;;8.70;;
5841;SDS011;2947;52.276;9.946;2024-01-07T01:14:14;15.00;;;8.27;;
5841;SDS011;2947;52.276;9.946;2024-01-07T01:16:40;17.90;;;9.43;;
5841;SDS011;2947;52.276;9.946;2024-01-07T01:19:06;17.10;;;7.80;;
5841;SDS011;2947;52.276;9.946;2024-01-07T01:21:33;13.00;;;5.30;;
5841;SDS011;2947;52.276;9.946;2024-01-07T01:23:59;19.43;;;9.10;;
5841;SDS011;2947;52.276;9.946;2024-01-07T01:26:25;10.80;;;6.53;;
5841;SDS011;2947;52.276;9.946;2024-01-07T01:28:51;15.63;;;6.77;;
5841;SDS011;2947;52.276;9.946;2024-01-07T01:31:16;12.67;;;6.63;;
5841;SDS011;2947;52.276;9.946;2024-01-07T01:33:42;12.93;;;6.97;;
5841;SDS011;2947;52.276;9.946;2024-01-07T01:36:08;15.87;;;7.80;;
5841;SDS011;2947;52.276;9.946;2024-01-07T01:38:34;14.17;;;7.83;;
5841;SDS011;2947;52.276;9.946;2024-01-07T01:40:59;9.20;;;4.90;;
5841;SDS011;2947;52.276;9.946;2024-01-07T01:43:28;18.67;;;6.73;;
5841;SDS011;2947;52.276;9.946;2024-01-07T01:45:54;11.73;;;5.83;;
5841;SDS011;2947;52.276;9.946;2024-01-07T01:48:22;14.40;;;6.50;;
5841;SDS011;2947;52.276;9.946;2024-01-07T01:50:49;11.23;;;5.80;;
5841;SDS011;2947;52.276;9.946;2024-01-07T01:53:15;15.20;;;6.80;;
5841;SDS011;2947;52.276;9.946;2024-01-07T01:55:44;11.37;;;4.83;;
5841;SDS011;2947;52.276;9.946;2024-01-07T01:58:10;8.30;;;3.83;;
5841;SDS011;2947;52.276;9.946;2024-01-07T02:00:38;16.00;;;6.23;;
5841;SDS011;2947;52.276;9.946;2024-01-07T02:03:04;14.47;;;5.57;;
5841;SDS011;2947;52.276;9.946;2024-01-07T02:05:30;9.53;;;4.67;;
5841;SDS011;2947;52.276;9.946;2024-01-07T02:07:56;6.70;;;4.03;;
5841;SDS011;2947;52.276;9.946;2024-01-07T02:10:23;4.17;;;2.57;;
5841;SDS011;2947;52.276;9.946;2024-01-07T02:12:48;24.93;;;4.40;;
5841;SDS011;2947;52.276;9.946;2024-01-07T02:15:15;10.00;;;4.07;;
5841;SDS011;2947;52.276;9.946;2024-01-07T02:17:40;12.70;;;5.77;;
5841;SDS011;2947;52.276;9.946;2024-01-07T02:20:06;11.47;;;4.17;;
5841;SDS011;2947;52.276;9.946;2024-01-07T02:22:33;8.70;;;4.23;;
5841;SDS011;2947;52.276;9.946;2024-01-07T02:24:59;12.80;;;5.23;;
5841;SDS011;2947;52.276;9.946;2024-01-07T02:27:25;9.93;;;5.53;;
5841;SDS011;2947;52.276;9.946;2024-01-07T02:29:50;10.03;;;5.10;;
5841;SDS011;2947;52.276;9.946;2024-01-07T02:32:16;16.60;;;6.10;;
5841;SDS011;2947;52.276;9.946;2024-01-07T02:34:42;8.10;;;4.50;;
5841;SDS011;2947;52.276;9.946;2024-01-07T02:37:07;10.77;;;4.37;;
5841;SDS011;2947;52.276;9.946;2024-01-07T02:39:33;7.87;;;4.30;;
5841;SDS011;2947;52.276;9.946;2024-01-07T02:41:59;11.83;;;5.63;;
5841;SDS011;2947;52.276;9.946;2024-01-07T02:44:24;5.67;;;2.70;;
5841;SDS011;2947;52.276;9.946;2024-01-07T02:46:50;11.73;;;5.37;;
5841;SDS011;2947;52.276;9.946;2024-01-07T02:49:16;11.47;;;4.70;;
5841;SDS011;2947;52.276;9.946;2024-01-07T02:51:42;32.50;;;4.17;;
5841;SDS011;2947;52.276;9.946;2024-01-07T02:54:10;5.73;;;3.73;;
5841;SDS011;2947;52.276;9.946;2024-01-07T02:56:35;3.93;;;2.43;;
5841;SDS011;2947;52.276;9.946;2024-01-07T02:59:01;9.07;;;4.60;;
5841;SDS011;2947;52.276;9.946;2024-01-07T03:01:27;13.20;;;4.30;;
5841;SDS011;2947;52.276;9.946;2024-01-07T03:03:52;10.10;;;4.70;;
5841;SDS011;2947;52.276;9.946;2024-01-07T03:06:18;8.60;;;3.40;;
5841;SDS011;2947;52.276;9.946;2024-01-07T03:08:44;7.30;;;4.07;;
5841;SDS011;2947;52.276;9.946;2024-01-07T03:11:10;7.93;;;3.93;;
5841;SDS011;2947;52.276;9.946;2024-01-07T03:13:36;7.53;;;2.83;;
5841;SDS011;2947;52.276;9.946;2024-01-07T03:16:01;5.30;;;2.47;;
5841;SDS011;2947;52.276;9.946;2024-01-07T03:18:30;8.43;;;4.20;;
5841;SDS011;2947;52.276;9.946;2024-01-07T03:20:55;7.83;;;3.57;;
5841;SDS011;2947;52.276;9.946;2024-01-07T03:23:21;8.23;;;4.10;;
5841;SDS011;2947;52.276;9.946;2024-01-07T03:25:47;5.70;;;2.53;;
5841;SDS011;2947;52.276;9.946;2024-01-07T03:28:12;18.97;;;4.97;;
5841;SDS011;2947;52.276;9.946;2024-01-07T03:30:38;10.60;;;3.83;;
5841;SDS011;2947;52.276;9.946;2024-01-07T03:33:05;8.10;;;3.87;;
5841;SDS011;2947;52.276;9.946;2024-01-07T03:35:31;9.80;;;2.40;;
5841;SDS011;2947;52.276;9.946;2024-01-07T03:37:57;6.07;;;2.93;;
5841;SDS011;2947;52.276;9.946;2024-01-07T03:40:22;5.63;;;2.33;;
5841;SDS011;2947;52.276;9.946;2024-01-07T03:42:48;8.03;;;3.37;;
5841;SDS011;2947;52.276;9.946;2024-01-07T03:45:14;5.23;;;2.90;;
5841;SDS011;2947;52.276;9.946;2024-01-07T03:47:39;8.50;;;3.20;;
5841;SDS011;2947;52.276;9.946;2024-01-07T03:50:05;5.33;;;2.60;;
5841;SDS011;2947;52.276;9.946;2024-01-07T03:52:31;4.47;;;2.20;;
5841;SDS011;2947;52.276;9.946;2024-01-07T03:54:58;4.13;;;2.40;;
5841;SDS011;2947;52.276;9.946;2024-01-07T03:57:23;4.57;;;1.93;;
5841;SDS011;2947;52.276;9.946;2024-01-07T03:59:49;6.37;;;2.83;;
5841;SDS011;2947;52.276;9.946;2024-01-07T04:02:15;3.90;;;1.60;;
5841;SDS011;2947;52.276;9.946;2024-01-07T04:04:41;4.57;;;2.00;;
5841;SDS011;2947;52.276;9.946;2024-01-07T04:07:07;6.93;;;3.33;;
5841;SDS011;2947;52.276;9.946;2024-01-07T04:09:33;4.17;;;1.67;;
5841;SDS011;2947;52.276;9.946;2024-01-07T04:11:59;3.60;;;2.10;;
5841;SDS011;2947;52.276;9.946;2024-01-07T04:14:24;2.70;;;1.67;;
5841;SDS011;2947;52.276;9.946;2024-01-07T04:16:52;3.83;;;1.90;;
5841;SDS011;2947;52.276;9.946;2024-01-07T04:19:18;3.77;;;1.40;;
5841;SDS011;2947;52.276;9.946;2024-01-07T04:21:47;5.00;;;2.23;;
5841;SDS011;2947;52.276;9.946;2024-01-07T04:24:13;7.20;;;1.70;;
5841;SDS011;2947;52.276;9.946;2024-01-07T04:26:38;3.70;;;1.30;;
5841;SDS011;2947;52.276;9.946;2024-01-07T04:29:04;5.47;;;2.00;;
5841;SDS011;2947;52.276;9.946;2024-01-07T04:31:31;5.17;;;2.37;;
5841;SDS011;2947;52.276;9.946;2024-01-07T04:33:57;5.37;;;1.70;;
5841;SDS011;2947;52.276;9.946;2024-01-07T04:36:22;3.00;;;1.63;;
5841;SDS011;2947;52.276;9.946;2024-01-07T04:38:48;5.43;;;1.50;;
5841;SDS011;2947;52.276;9.946;2024-01-07T04:41:14;3.33;;;1.73;;
5841;SDS011;2947;52.276;9.946;2024-01-07T04:43:39;2.10;;;1.00;;
5841;SDS011;2947;52.276;9.946;2024-01-07T04:46:08;6.83;;;2.53;;
5841;SDS011;2947;52.276;9.946;2024-01-07T04:48:35;4.17;;;2.10;;
5841;SDS011;2947;52.276;9.946;2024-01-07T04:51:01;4.30;;;1.43;;
5841;SDS011;2947;52.276;9.946;2024-01-07T04:53:27;3.10;;;1.43;;
5841;SDS011;2947;52.276;9.946;2024-01-07T04:55:52;5.47;;;2.50;;
5841;SDS011;2947;52.276;9.946;2024-01-07T04:58:18;3.10;;;2.00;;
5841;SDS011;2947;52.276;9.946;2024-01-07T05:00:44;4.60;;;2.30;;
5841;SDS011;2947;52.276;9.946;2024-01-07T05:03:09;5.70;;;2.27;;
5841;SDS011;2947;52.276;9.946;2024-01-07T05:05:35;4.10;;;1.80;;
5841;SDS011;2947;52.276;9.946;2024-01-07T05:08:01;3.40;;;1.33;;
5841;SDS011;2947;52.276;9.946;2024-01-07T05:10:28;3.10;;;1.27;;
5841;SDS011;2947;52.276;9.946;2024-01-07T05:12:53;3.80;;;1.70;;
5841;SDS011;2947;52.276;9.946;2024-01-07T05:15:19;4.50;;;1.73;;
5841;SDS011;2947;52.276;9.946;2024-01-07T05:17:45;7.27;;;1.93;;
5841;SDS011;2947;52.276;9.946;2024-01-07T05:20:11;3.13;;;1.93;;
5841;SDS011;2947;52.276;9.946;2024-01-07T05:22:36;3.67;;;1.90;;
5841;SDS011;2947;52.276;9.946;2024-01-07T05:25:02;3.37;;;1.80;;
5841;SDS011;2947;52.276;9.946;2024-01-07T05:27:30;4.03;;;1.90;;
5841;SDS011;2947;52.276;9.946;2024-01-07T05:29:56;4.13;;;2.00;;
5841;SDS011;2947;52.276;9.946;2024-01-07T05:32:22;4.00;;;1.60;;
5841;SDS011;2947;52.276;9.946;2024-01-07T05:34:48;5.80;;;1.80;;
5841;SDS011;2947;52.276;9.946;2024-01-07T05:37:15;3.53;;;1.43;;
5841;SDS011;2947;52.276;9.946;2024-01-07T05:39:41;5.33;;;1.93;;
5841;SDS011;2947;52.276;9.946;2024-01-07T05:42:06;3.30;;;1.73;;
5841;SDS011;2947;52.276;9.946;2024-01-07T05:44:32;2.30;;;0.93;;
5841;SDS011;2947;52.276;9.946;2024-01-07T05:46:58;3.43;;;1.43;;
5841;SDS011;2947;52.276;9.946;2024-01-07T05:49:24;4.43;;;2.07;;
5841;SDS011;2947;52.276;9.946;2024-01-07T05:51:49;8.03;;;2.40;;
5841;SDS011;2947;52.276;9.946;2024-01-07T05:54:15;7.10;;;2.20;;
5841;SDS011;2947;52.276;9.946;2024-01-07T05:56:41;2.67;;;1.47;;
5841;SDS011;2947;52.276;9.946;2024-01-07T05:59:07;4.27;;;1.90;;
5841;SDS011;2947;52.276;9.946;2024-01-07T06:01:33;4.33;;;1.77;;
5841;SDS011;2947;52.276;9.946;2024-01-07T06:04:00;2.50;;;1.10;;
5841;SDS011;2947;52.276;9.946;2024-01-07T06:06:26;2.40;;;1.40;;
5841;SDS011;2947;52.276;9.946;2024-01-07T06:08:51;4.13;;;1.90;;
5841;SDS011;2947;52.276;9.946;2024-01-07T06:11:17;5.13;;;2.20;;
5841;SDS011;2947;52.276;9.946;2024-01-07T06:13:45;4.23;;;2.07;;
5841;SDS011;2947;52.276;9.946;2024-01-07T06:16:11;3.43;;;1.70;;
5841;SDS011;2947;52.276;9.946;2024-01-07T06:18:37;2.97;;;1.37;;
5841;SDS011;2947;52.276;9.946;2024-01-07T06:21:03;3.57;;;1.80;;
5841;SDS011;2947;52.276;9.946;2024-01-07T06:23:29;3.87;;;1.40;;
5841;SDS011;2947;52.276;9.946;2024-01-07T06:25:57;6.60;;;2.00;;
5841;SDS011;2947;52.276;9.946;2024-01-07T06:28:23;6.93;;;2.07;;
5841;SDS011;2947;52.276;9.946;2024-01-07T06:30:48;8.60;;;2.13;;
5841;SDS011;2947;52.276;9.946;2024-01-07T06:33:14;5.80;;;2.43;;
5841;SDS011;2947;52.276;9.946;2024-01-07T06:35:40;5.33;;;2.10;;
5841;SDS011;2947;52.276;9.946;2024-01-07T06:38:06;5.80;;;2.20;;
5841;SDS011;2947;52.276;9.946;2024-01-07T06:40:31;5.10;;;1.60;;
5841;SDS011;2947;52.276;9.946;2024-01-07T06:42:57;5.93;;;2.53;;
5841;SDS011;2947;52.276;9.946;2024-01-07T06:45:23;5.53;;;2.40;;
5841;SDS011;2947;52.276;9.946;2024-01-07T06:47:48;3.20;;;1.60;;
5841;SDS011;2947;52.276;9.946;2024-01-07T06:50:14;3.73;;;2.00;;
5841;SDS011;2947;52.276;9.946;2024-01-07T06:52:40;5.97;;;1.40;;
5841;SDS011;2947;52.276;9.946;2024-01-07T06:55:06;3.10;;;1.27;;
5841;SDS011;2947;52.276;9.946;2024-01-07T06:57:33;4.40;;;2.20;;
5841;SDS011;2947;52.276;9.946;2024-01-07T06:59:58;3.00;;;1.60;;
5841;SDS011;2947;52.276;9.946;2024-01-07T07:02:24;7.50;;;3.40;;
5841;SDS011;2947;52.276;9.946;2024-01-07T07:04:50;3.63;;;1.30;;
5841;SDS011;2947;52.276;9.946;2024-01-07T07:07:16;9.47;;;2.47;;
5841;SDS011;2947;52.276;9.946;2024-01-07T07:09:42;2.17;;;0.87;;
5841;SDS011;2947;52.276;9.946;2024-01-07T07:12:08;7.87;;;3.77;;
5841;SDS011;2947;52.276;9.946;2024-01-07T07:14:33;3.23;;;1.73;;
5841;SDS011;2947;52.276;9.946;2024-01-07T07:17:00;2.80;;;1.47;;
5841;SDS011;2947;52.276;9.946;2024-01-07T07:19:25;4.10;;;1.57;;
5841;SDS011;2947;52.276;9.946;2024-01-07T07:21:51;7.60;;;2.70;;
5841;SDS011;2947;52.276;9.946;2024-01-07T07:24:17;4.37;;;2.50;;
5841;SDS011;2947;52.276;9.946;2024-01-07T07:26:43;5.97;;;2.60;;
5841;SDS011;2947;52.276;9.946;2024-01-07T07:29:08;5.07;;;2.33;;
5841;SDS011;2947;52.276;9.946;2024-01-07T07:31:37;5.97;;;2.20;;
5841;SDS011;2947;52.276;9.946;2024-01-07T07:34:05;3.50;;;1.53;;
5841;SDS011;2947;52.276;9.946;2024-01-07T07:36:34;4.20;;;2.40;;
5841;SDS011;2947;52.276;9.946;2024-01-07T07:38:59;4.60;;;2.00;;
5841;SDS011;2947;52.276;9.946;2024-01-07T07:41:25;4.03;;;1.43;;
5841;SDS011;2947;52.276;9.946;2024-01-07T07:43:51;7.20;;;2.13;;
5841;SDS011;2947;52.276;9.946;2024-01-07T07:46:16;6.83;;;2.43;;
5841;SDS011;2947;52.276;9.946;2024-01-07T07:48:42;4.83;;;2.47;;
5841;SDS011;2947;52.276;9.946;2024-01-07T07:51:08;9.30;;;2.50;;
5841;SDS011;2947;52.276;9.946;2024-01-07T07:53:33;7.50;;;2.57;;
5841;SDS011;2947;52.276;9.946;2024-01-07T07:56:03;4.20;;;1.93;;
5841;SDS011;2947;52.276;9.946;2024-01-07T07:58:31;5.83;;;2.60;;
5841;SDS011;2947;52.276;9.946;2024-01-07T08:00:57;2.47;;;1.30;;
5841;SDS011;2947;52.276;9.946;2024-01-07T08:03:23;2.50;;;1.30;;
5841;SDS011;2947;52.276;9.946;2024-01-07T08:05:48;7.80;;;3.27;;
5841;SDS011;2947;52.276;9.946;2024-01-07T08:08:15;9.80;;;4.60;;
5841;SDS011;2947;52.276;9.946;2024-01-07T08:10:42;5.63;;;3.10;;
5841;SDS011;2947;52.276;9.946;2024-01-07T08:13:08;4.13;;;2.20;;
5841;SDS011;2947;52.276;9.946;2024-01-07T08:15:34;5.97;;;3.10;;
5841;SDS011;2947;52.276;9.946;2024-01-07T08:18:00;3.10;;;1.50;;
5841;SDS011;2947;52.276;9.946;2024-01-07T08:20:27;3.83;;;1.70;;
5841;SDS011;2947;52.276;9.946;2024-01-07T08:22:54;3.73;;;2.17;;
5841;SDS011;2947;52.276;9.946;2024-01-07T08:25:19;4.20;;;1.90;;
5841;SDS011;2947;52.276;9.946;2024-01-07T08:27:45;5.50;;;2.73;;
5841;SDS011;2947;52.276;9.946;2024-01-07T08:30:11;3.90;;;1.87;;
5841;SDS011;2947;52.276;9.946;2024-01-07T08:32:38;7.07;;;2.60;;
5841;SDS011;2947;52.276;9.946;2024-01-07T08:35:05;5.77;;;1.97;;
5841;SDS011;2947;52.276;9.946;2024-01-07T08:37:31;5.07;;;2.60;;
5841;SDS011;2947;52.276;9.946;2024-01-07T08:39:58;6.90;;;3.20;;
5841;SDS011;2947;52.276;9.946;2024-01-07T08:42:24;8.03;;;3.80;;
5841;SDS011;2947;52.276;9.946;2024-01-07T08:44:50;7.77;;;2.60;;
5841;SDS011;2947;52.276;9.946;2024-01-07T08:47:17;4.13;;;2.80;;
5841;SDS011;2947;52.276;9.946;2024-01-07T08:49:43;2.53;;;1.67;;
5841;SDS011;2947;52.276;9.946;2024-01-07T08:52:09;6.50;;;2.90;;
5841;SDS011;2947;52.276;9.946;2024-01-07T08:54:35;6.50;;;2.50;;
5841;SDS011;2947;52.276;9.946;2024-01-07T08:57:01;7.60;;;2.67;;
5841;SDS011;2947;52.276;9.946;2024-01-07T08:59:27;7.67;;;3.00;;
5841;SDS011;2947;52.276;9.946;2024-01-07T09:01:53;8.27;;;3.40;;
5841;SDS011;2947;52.276;9.946;2024-01-07T09:04:19;7.00;;;3.43;;
5841;SDS011;2947;52.276;9.946;2024-01-07T09:06:45;8.00;;;3.57;;
5841;SDS011;2947;52.276;9.946;2024-01-07T09:09:11;7.50;;;3.13;;
5841;SDS011;2947;52.276;9.946;2024-01-07T09:11:37;7.17;;;3.37;;
5841;SDS011;2947;52.276;9.946;2024-01-07T09:14:03;5.67;;;3.10;;
5841;SDS011;2947;52.276;9.946;2024-01-07T09:16:29;5.33;;;2.70;;
5841;SDS011;2947;52.276;9.946;2024-01-07T09:18:55;5.67;;;2.90;;
5841;SDS011;2947;52.276;9.946;2024-01-07T09:21:21;5.47;;;2.47;;
5841;SDS011;2947;52.276;9.946;2024-01-07T09:23:48;7.23;;;2.33;;
5841;SDS011;2947;52.276;9.946;2024-01-07T09:26:14;4.60;;;2.33;;
5841;SDS011;2947;52.276;9.946;2024-01-07T09:28:39;7.40;;;2.70;;
5841;SDS011;2947;52.276;9.946;2024-01-07T09:31:07;4.20;;;1.70;;
5841;SDS011;2947;52.276;9.946;2024-01-07T09:33:33;4.40;;;1.97;;
5841;SDS011;2947;52.276;9.946;2024-01-07T09:35:59;3.37;;;1.37;;
5841;SDS011;2947;52.276;9.946;2024-01-07T09:38:25;4.83;;;2.50;;
5841;SDS011;2947;52.276;9.946;2024-01-07T09:40:51;3.70;;;2.60;;
5841;SDS011;2947;52.276;9.946;2024-01-07T09:43:18;6.10;;;2.37;;
5841;SDS011;2947;52.276;9.946;2024-01-07T09:45:46;6.70;;;2.27;;
5841;SDS011;2947;52.276;9.946;2024-01-07T09:48:14;4.57;;;2.10;;
5841;SDS011;2947;52.276;9.946;2024-01-07T09:50:41;5.20;;;2.30;;
5841;SDS011;2947;52.276;9.946;2024-01-07T09:53:07;3.30;;;2.47;;
5841;SDS011;2947;52.276;9.946;2024-01-07T09:55:46;4.37;;;2.13;;
5841;SDS011;2947;52.276;9.946;2024-01-07T09:58:45;4.80;;;2.73;;
5841;SDS011;2947;52.276;9.946;2024-01-07T10:01:14;5.37;;;2.23;;
5841;SDS011;2947;52.276;9.946;2024-01-07T10:03:42;9.20;;;2.60;;
5841;SDS011;2947;52.276;9.946;2024-01-07T10:06:08;5.07;;;2.57;;
5841;SDS011;2947;52.276;9.946;2024-01-07T10:08:36;5.03;;;2.17;;
5841;SDS011;2947;52.276;9.946;2024-01-07T10:11:02;4.03;;;2.07;;
5841;SDS011;2947;52.276;9.946;2024-01-07T10:13:29;7.60;;;3.00;;
5841;SDS011;2947;52.276;9.946;2024-01-07T10:15:57;6.37;;;2.03;;
5841;SDS011;2947;52.276;9.946;2024-01-07T10:18:23;5.20;;;2.03;;
5841;SDS011;2947;52.276;9.946;2024-01-07T10:20:50;6.40;;;2.97;;
5841;SDS011;2947;52.276;9.946;2024-01-07T10:23:19;6.63;;;2.47;;
5841;SDS011;2947;52.276;9.946;2024-01-07T10:25:45;5.40;;;2.10;;
5841;SDS011;2947;52.276;9.946;2024-01-07T10:28:12;6.03;;;2.03;;
5841;SDS011;2947;52.276;9.946;2024-01-07T10:30:39;3.90;;;1.90;;
5841;SDS011;2947;52.276;9.946;2024-01-07T10:33:07;4.53;;;1.87;;
5841;SDS011;2947;52.276;9.946;2024-01-07T10:35:34;4.97;;;2.40;;
5841;SDS011;2947;52.276;9.946;2024-01-07T10:38:02;4.30;;;1.90;;
5841;SDS011;2947;52.276;9.946;2024-01-07T10:40:29;3.70;;;2.20;;
5841;SDS011;2947;52.276;9.946;2024-01-07T10:42:56;3.90;;;1.97;;
5841;SDS011;2947;52.276;9.946;2024-01-07T10:45:23;10.47;;;2.77;;
5841;SDS011;2947;52.276;9.946;2024-01-07T10:47:49;4.03;;;1.60;;
5841;SDS011;2947;52.276;9.946;2024-01-07T10:50:17;5.07;;;1.83;;
5841;SDS011;2947;52.276;9.946;2024-01-07T10:52:46;4.77;;;2.43;;
5841;SDS011;2947;52.276;9.946;2024-01-07T10:55:17;4.23;;;1.83;;
5841;SDS011;2947;52.276;9.946;2024-01-07T10:57:44;4.70;;;2.57;;
5841;SDS011;2947;52.276;9.946;2024-01-07T11:00:15;5.83;;;2.73;;
5841;SDS011;2947;52.276;9.946;2024-01-07T11:05:33;4.00;;;1.57;;
5841;SDS011;2947;52.276;9.946;2024-01-07T11:11:04;4.80;;;1.97;;
5841;SDS011;2947;52.276;9.946;2024-01-07T11:13:48;4.20;;;2.03;;
5841;SDS011;2947;52.276;9.946;2024-01-07T11:16:14;6.90;;;2.13;;
5841;SDS011;2947;52.276;9.946;2024-01-07T11:19:07;4.60;;;2.47;;
5841;SDS011;2947;52.276;9.946;2024-01-07T11:21:33;6.93;;;2.10;;
5841;SDS011;2947;52.276;9.946;2024-01-07T11:24:00;3.33;;;1.90;;
5841;SDS011;2947;52.276;9.946;2024-01-07T11:26:28;5.80;;;2.83;;
5841;SDS011;2947;52.276;9.946;2024-01-07T11:28:55;4.83;;;1.93;;
5841;SDS011;2947;52.276;9.946;2024-01-07T11:31:44;3.80;;;1.80;;
5841;SDS011;2947;52.276;9.946;2024-01-07T11:34:09;4.67;;;2.27;;
5841;SDS011;2947;52.276;9.946;2024-01-07T11:36:36;6.40;;;2.50;;
5841;SDS011;2947;52.276;9.946;2024-01-07T11:39:03;8.07;;;2.97;;
5841;SDS011;2947;52.276;9.946;2024-01-07T11:41:33;13.23;;;4.60;;
5841;SDS011;2947;52.276;9.946;2024-01-07T11:44:00;6.30;;;3.40;;
5841;SDS011;2947;52.276;9.946;2024-01-07T11:46:26;9.20;;;3.40;;
5841;SDS011;2947;52.276;9.946;2024-01-07T11:48:54;8.87;;;4.07;;
5841;SDS011;2947;52.276;9.946;2024-01-07T11:51:25;5.77;;;2.30;;
5841;SDS011;2947;52.276;9.946;2024-01-07T11:53:52;5.77;;;2.70;;
5841;SDS011;2947;52.276;9.946;2024-01-07T11:56:18;6.20;;;2.83;;
5841;SDS011;2947;52.276;9.946;2024-01-07T11:58:45;15.23;;;6.30;;
5841;SDS011;2947;52.276;9.946;2024-01-07T12:01:10;8.73;;;3.30;;
5841;SDS011;2947;52.276;9.946;2024-01-07T12:03:36;15.17;;;6.40;;
5841;SDS011;2947;52.276;9.946;2024-01-07T12:06:03;10.63;;;4.57;;
5841;SDS011;2947;52.276;9.946;2024-01-07T12:08:31;7.40;;;3.60;;
5841;SDS011;2947;52.276;9.946;2024-01-07T12:10:57;13.03;;;6.07;;
5841;SDS011;2947;52.276;9.946;2024-01-07T12:13:25;6.03;;;3.73;;
5841;SDS011;2947;52.276;9.946;2024-01-07T12:15:51;5.33;;;3.00;;
5841;SDS011;2947;52.276;9.946;2024-01-07T12:18:16;6.70;;;3.33;;
5841;SDS011;2947;52.276;9.946;2024-01-07T12:20:42;9.93;;;3.00;;
5841;SDS011;2947;52.276;9.946;2024-01-07T12:23:24;4.50;;;2.17;;
5841;SDS011;2947;52.276;9.946;2024-01-07T12:25:53;6.03;;;3.10;;
5841;SDS011;2947;52.276;9.946;2024-01-07T12:28:21;6.77;;;3.83;;
5841;SDS011;2947;52.276;9.946;2024-01-07T12:30:47;6.50;;;3.33;;
5841;SDS011;2947;52.276;9.946;2024-01-07T12:33:17;9.93;;;5.90;;
5841;SDS011;2947;52.276;9.946;2024-01-07T12:35:47;8.67;;;4.67;;
5841;SDS011;2947;52.276;9.946;2024-01-07T12:38:12;7.97;;;4.70;;
5841;SDS011;2947;52.276;9.946;2024-01-07T12:40:39;6.60;;;3.93;;
5841;SDS011;2947;52.276;9.946;2024-01-07T12:43:04;5.30;;;2.67;;
5841;SDS011;2947;52.276;9.946;2024-01-07T12:45:34;5.57;;;2.40;;
5841;SDS011;2947;52.276;9.946;2024-01-07T12:48:00;5.30;;;2.60;;
5841;SDS011;2947;52.276;9.946;2024-01-07T12:50:28;7.13;;;2.80;;
5841;SDS011;2947;52.276;9.946;2024-01-07T12:52:55;7.20;;;3.10;;
5841;SDS011;2947;52.276;9.946;2024-01-07T12:55:22;10.93;;;3.07;;
5841;SDS011;2947;52.276;9.946;2024-01-07T12:57:48;5.77;;;2.80;;
5841;SDS011;2947;52.276;9.946;2024-01-07T13:00:14;7.00;;;3.10;;
5841;SDS011;2947;52.276;9.946;2024-01-07T13:02:40;6.00;;;2.33;;
5841;SDS011;2947;52.276;9.946;2024-01-07T13:05:07;4.83;;;2.57;;
5841;SDS011;2947;52.276;9.946;2024-01-07T13:07:34;4.47;;;2.53;;
5841;SDS011;2947;52.276;9.946;2024-01-07T13:10:00;4.97;;;2.27;;
5841;SDS011;2947;52.276;9.946;2024-01-07T13:12:26;5.57;;;2.97;;
5841;SDS011;2947;52.276;9.946;2024-01-07T13:14:52;7.07;;;2.40;;
5841;SDS011;2947;52.276;9.946;2024-01-07T13:17:18;9.60;;;3.00;;
5841;SDS011;2947;52.276;9.946;2024-01-07T13:19:45;7.03;;;3.40;;
5841;SDS011;2947;52.276;9.946;2024-01-07T13:22:11;4.87;;;2.37;;
5841;SDS011;2947;52.276;9.946;2024-01-07T13:24:37;4.73;;;2.03;;
5841;SDS011;2947;52.276;9.946;2024-01-07T13:27:03;4.40;;;2.70;;
5841;SDS011;2947;52.276;9.946;2024-01-07T13:29:33;4.97;;;2.80;;
5841;SDS011;2947;52.276;9.946;2024-01-07T13:32:00;6.90;;;3.30;;
5841;SDS011;2947;52.276;9.946;2024-01-07T13:34:25;4.67;;;2.20;;
5841;SDS011;2947;52.276;9.946;2024-01-07T13:36:52;4.77;;;2.53;;
5841;SDS011;2947;52.276;9.946;2024-01-07T13:39:18;9.27;;;4.57;;
5841;SDS011;2947;52.276;9.946;2024-01-07T13:41:46;10.63;;;3.07;;
5841;SDS011;2947;52.276;9.946;2024-01-07T13:44:11;9.33;;;4.00;;
5841;SDS011;2947;52.276;9.946;2024-01-07T13:46:45;8.33;;;3.50;;
5841;SDS011;2947;52.276;9.946;2024-01-07T13:49:12;9.80;;;3.20;;
5841;SDS011;2947;52.276;9.946;2024-01-07T13:51:38;13.17;;;4.53;;
5841;SDS011;2947;52.276;9.946;2024-01-07T13:54:05;9.50;;;4.80;;
5841;SDS011;2947;52.276;9.946;2024-01-07T13:56:32;16.07;;;5.60;;
5841;SDS011;2947;52.276;9.946;2024-01-07T13:59:01;6.33;;;3.27;;
5841;SDS011;2947;52.276;9.946;2024-01-07T14:01:30;5.00;;;2.90;;
5841;SDS011;2947;52.276;9.946;2024-01-07T14:03:56;5.70;;;3.40;;
5841;SDS011;2947;52.276;9.946;2024-01-07T14:06:22;7.37;;;3.40;;
5841;SDS011;2947;52.276;9.946;2024-01-07T14:08:48;6.73;;;3.70;;
5841;SDS011;2947;52.276;9.946;2024-01-07T14:11:13;7.30;;;4.00;;
5841;SDS011;2947;52.276;9.946;2024-01-07T14:13:39;11.80;;;5.13;;
5841;SDS011;2947;52.276;9.946;2024-01-07T14:16:05;9.57;;;4.13;;
5841;SDS011;2947;52.276;9.946;2024-01-07T14:18:31;7.77;;;4.27;;
5841;SDS011;2947;52.276;9.946;2024-01-07T14:20:57;7.87;;;4.03;;
5841;SDS011;2947;52.276;9.946;2024-01-07T14:23:23;7.93;;;3.57;;
5841;SDS011;2947;52.276;9.946;2024-01-07T14:25:49;8.40;;;3.30;;
5841;SDS011;2947;52.276;9.946;2024-01-07T14:28:14;12.87;;;4.23;;
5841;SDS011;2947;52.276;9.946;2024-01-07T14:30:40;7.00;;;3.20;;
5841;SDS011;2947;52.276;9.946;2024-01-07T14:33:06;3.27;;;1.77;;
5841;SDS011;2947;52.276;9.946;2024-01-07T14:35:32;6.90;;;2.57;;
5841;SDS011;2947;52.276;9.946;2024-01-07T14:37:58;4.70;;;2.23;;
5841;SDS011;2947;52.276;9.946;2024-01-07T14:40:25;5.40;;;2.50;;
5841;SDS011;2947;52.276;9.946;2024-01-07T14:42:51;5.50;;;2.80;;
5841;SDS011;2947;52.276;9.946;2024-01-07T14:45:22;6.43;;;3.10;;
5841;SDS011;2947;52.276;9.946;2024-01-07T14:47:52;4.77;;;2.33;;
5841;SDS011;2947;52.276;9.946;2024-01-07T14:50:18;3.70;;;2.10;;
5841;SDS011;2947;52.276;9.946;2024-01-07T14:52:44;4.23;;;2.53;;
5841;SDS011;2947;52.276;9.946;2024-01-07T14:55:10;4.40;;;2.23;;
5841;SDS011;2947;52.276;9.946;2024-01-07T14:57:37;4.43;;;1.83;;
5841;SDS011;2947;52.276;9.946;2024-01-07T15:00:06;4.53;;;2.33;;
5841;SDS011;2947;52.276;9.946;2024-01-07T15:02:33;4.13;;;1.77;;
5841;SDS011;2947;52.276;9.946;2024-01-07T15:05:00;6.13;;;1.67;;
5841;SDS011;2947;52.276;9.946;2024-01-07T15:07:28;3.50;;;1.53;;
5841;SDS011;2947;52.276;9.946;2024-01-07T15:09:54;4.77;;;2.50;;
5841;SDS011;2947;52.276;9.946;2024-01-07T15:12:19;2.90;;;1.40;;
5841;SDS011;2947;52.276;9.946;2024-01-07T15:14:45;5.00;;;2.10;;